Time;durP1;ratioP1;P1;durP2;ratioP2;P2;SDS_P1;SDS_P2;PMS_P1;PMS_P2;Temp;Humidity;BMP_temperature;BMP_pressure;BME280_temperature;BME280_humidity;BME280_pressure;Samples;Min_cycle;Max_cycle;Signal;HPM_P1;HPM_P2
2022/02/15 00:00:50;;;;;;;67.07;36.15;;;;;;;-1.88;100.00;98614.34;2082423;28;20658;-70
2022/02/15 00:01:56;;;;;;;67.68;36.83;;;;;;;-1.92;100.00;98607.94;2082720;28;20171;-69
2022/02/15 00:03:00;;;;;;;73.78;37.80;;;;;;;-1.94;100.00;98610.00;2082622;28;20180;-69
2022/02/15 00:04:02;;;;;;;71.03;36.65;;;;;;;-1.95;100.00;98597.94;2081654;28;20204;-70
2022/02/15 00:05:07;;;;;;;73.47;37.22;;;;;;;-1.97;100.00;98596.59;2081879;28;20274;-70
2022/02/15 00:06:11;;;;;;;73.05;34.92;;;;;;;-2.06;100.00;98591.69;2081776;28;20290;-70
2022/02/15 00:07:14;;;;;;;68.15;35.53;;;;;;;-2.02;100.00;98602.47;2082406;28;20200;-70
2022/02/15 00:08:19;;;;;;;65.72;35.42;;;;;;;-2.06;100.00;98604.75;2081681;28;20199;-69
2022/02/15 00:09:21;;;;;;;71.05;35.92;;;;;;;-2.09;100.00;98607.81;2082184;28;20199;-69
2022/02/15 00:10:24;;;;;;;61.15;36.70;;;;;;;-2.08;100.00;98609.44;2081848;28;20188;-70
2022/02/15 00:11:31;;;;;;;67.32;38.13;;;;;;;-2.07;100.00;98603.19;2082353;28;20658;-70
2022/02/15 00:12:34;;;;;;;65.28;38.15;;;;;;;-2.07;100.00;98600.56;2082289;28;20195;-70
2022/02/15 00:13:38;;;;;;;68.47;36.65;;;;;;;-2.07;100.00;98599.78;2082295;28;20215;-69
2022/02/15 00:14:42;;;;;;;70.30;37.78;;;;;;;-2.09;100.00;98602.59;2082352;28;20196;-70
2022/02/15 00:15:49;;;;;;;72.22;35.92;;;;;;;-2.13;100.00;98598.84;2089587;28;20276;-70
2022/02/15 00:16:57;;;;;;;70.93;38.60;;;;;;;-2.12;100.00;98604.84;2089020;28;20199;-70
2022/02/15 00:17:59;;;;;;;65.25;37.78;;;;;;;-2.10;100.00;98610.66;2082621;28;20633;-69
2022/02/15 00:19:08;;;;;;;70.75;38.10;;;;;;;-2.11;100.00;98602.03;2081586;28;20286;-69
2022/02/15 00:20:17;;;;;;;72.57;40.45;;;;;;;-2.09;100.00;98607.00;2081733;28;20653;-69
2022/02/15 00:21:19;;;;;;;74.07;38.83;;;;;;;-2.08;100.00;98604.19;2081307;28;20231;-69
2022/02/15 00:22:23;;;;;;;72.68;36.53;;;;;;;-2.05;100.00;98598.50;2081611;28;20202;-69
2022/02/15 00:23:27;;;;;;;57.97;33.88;;;;;;;-2.08;100.00;98598.19;2081523;28;20223;-70
2022/02/15 00:24:29;;;;;;;63.45;35.42;;;;;;;-2.11;100.00;98593.38;2081959;28;20251;-69
2022/02/15 00:25:34;;;;;;;61.13;34.42;;;;;;;-2.14;100.00;98593.84;2089679;28;20191;-70
2022/02/15 00:26:38;;;;;;;59.50;36.00;;;;;;;-2.17;100.00;98586.44;2082248;28;20195;-69
2022/02/15 00:27:42;;;;;;;66.82;37.20;;;;;;;-2.19;100.00;98594.50;2089783;28;20199;-69
2022/02/15 00:28:47;;;;;;;75.20;37.75;;;;;;;-2.20;100.00;98594.72;2081525;28;20295;-70
2022/02/15 00:29:50;;;;;;;63.45;38.45;;;;;;;-2.23;100.00;98596.00;2073816;28;20291;-70
2022/02/15 00:30:51;;;;;;;70.57;40.50;;;;;;;-2.24;100.00;98591.00;2081646;28;20187;-69
2022/02/15 00:31:53;;;;;;;66.97;38.77;;;;;;;-2.24;100.00;98598.81;2082501;28;20188;-69
2022/02/15 00:32:59;;;;;;;80.20;39.78;;;;;;;-2.25;100.00;98584.19;2082476;28;20437;-70
2022/02/15 00:34:02;;;;;;;75.55;40.08;;;;;;;-2.24;100.00;98588.38;2081377;28;20306;-70
2022/02/15 00:35:05;;;;;;;72.15;40.78;;;;;;;-2.27;100.00;98589.59;2081791;28;20207;-69
2022/02/15 00:36:10;;;;;;;71.97;41.22;;;;;;;-2.25;100.00;98589.41;2081017;28;20311;-70
2022/02/15 00:37:14;;;;;;;76.18;37.28;;;;;;;-2.25;100.00;98592.00;2074114;28;20196;-69
2022/02/15 00:38:17;;;;;;;71.03;38.22;;;;;;;-2.27;100.00;98600.84;2081749;28;20278;-69
2022/02/15 00:39:20;;;;;;;73.18;39.05;;;;;;;-2.27;100.00;98598.22;2082193;28;20191;-69
2022/02/15 00:40:26;;;;;;;70.10;37.78;;;;;;;-2.29;100.00;98594.25;2082259;28;20677;-70
2022/02/15 00:41:28;;;;;;;80.07;40.60;;;;;;;-2.31;100.00;98591.09;2081496;28;20715;-69
2022/02/15 00:42:31;;;;;;;73.38;39.63;;;;;;;-2.30;100.00;98596.06;2073811;28;20204;-69
2022/02/15 00:43:36;;;;;;;78.13;39.08;;;;;;;-2.30;100.00;98590.84;2073824;28;20208;-70
2022/02/15 00:44:40;;;;;;;78.10;43.60;;;;;;;-2.28;100.00;98591.41;2073547;28;20249;-70
2022/02/15 00:45:46;;;;;;;77.88;41.65;;;;;;;-2.27;100.00;98594.81;2081429;28;20222;-69
2022/02/15 00:46:47;;;;;;;72.88;39.13;;;;;;;-2.25;100.00;98592.00;2073796;28;20196;-70
2022/02/15 00:47:53;;;;;;;71.05;40.05;;;;;;;-2.27;100.00;98589.59;2081659;28;20188;-70
2022/02/15 00:48:58;;;;;;;64.53;37.95;;;;;;;-2.29;100.00;98587.22;2081736;28;20319;-69
2022/02/15 00:50:00;;;;;;;84.93;41.10;;;;;;;-2.30;100.00;98587.44;2081911;28;20199;-69
2022/02/15 00:51:03;;;;;;;74.30;41.13;;;;;;;-2.29;100.00;98594.25;2080886;28;20237;-69
2022/02/15 00:52:10;;;;;;;72.53;42.28;;;;;;;-2.31;100.00;98589.25;2081782;28;20669;-69
2022/02/15 00:53:11;;;;;;;75.95;41.65;;;;;;;-2.31;100.00;98584.03;2081486;28;20211;-69
2022/02/15 00:54:15;;;;;;;84.20;42.00;;;;;;;-2.30;100.00;98588.25;2081196;28;20682;-70
2022/02/15 00:55:18;;;;;;;70.03;40.08;;;;;;;-2.30;100.00;98592.66;2081127;28;20255;-70
2022/02/15 00:56:24;;;;;;;75.25;38.15;;;;;;;-2.32;100.00;98587.69;2073718;28;20228;-70
2022/02/15 00:57:25;;;;;;;72.28;39.92;;;;;;;-2.34;100.00;98583.72;2081534;28;20796;-69
2022/02/15 00:58:29;;;;;;;72.20;41.67;;;;;;;-2.33;100.00;98583.47;2082099;28;20271;-70
2022/02/15 00:59:32;;;;;;;77.20;39.90;;;;;;;-2.34;100.00;98583.72;2082238;28;20191;-70
2022/02/15 01:00:38;;;;;;;83.22;38.97;;;;;;;-2.34;100.00;98583.72;2081756;28;20254;-69
2022/02/15 01:01:41;;;;;;;82.15;39.92;;;;;;;-2.37;100.00;98569.25;2081742;28;20249;-69
2022/02/15 01:02:47;;;;;;;74.93;41.70;;;;;;;-2.37;100.00;98577.09;2081565;28;20289;-71
2022/02/15 01:03:51;;;;;;;80.35;43.92;;;;;;;-2.36;100.00;98572.66;2074169;28;20651;-69
2022/02/15 01:04:57;;;;;;;76.63;41.15;;;;;;;-2.37;100.00;98571.06;2081468;28;20677;-70
2022/02/15 01:05:59;;;;;;;76.68;40.75;;;;;;;-2.37;100.00;98571.06;2081518;28;20198;-69
2022/02/15 01:07:04;;;;;;;83.97;42.97;;;;;;;-2.35;100.00;98569.03;2081419;28;20216;-69
2022/02/15 01:08:11;;;;;;;70.15;39.15;;;;;;;-2.35;100.00;98567.22;2081409;28;20654;-69
2022/02/15 01:09:19;;;;;;;78.43;43.35;;;;;;;-2.37;100.00;98568.47;2082381;28;20262;-70
2022/02/15 01:10:24;;;;;;;72.22;39.08;;;;;;;-2.37;100.00;98564.03;2081605;28;20245;-69
2022/02/15 01:11:25;;;;;;;69.18;37.42;;;;;;;-2.38;100.00;98561.66;2081461;28;20202;-69
2022/02/15 01:12:30;;;;;;;71.10;38.97;;;;;;;-2.40;100.00;98567.09;2089556;28;20215;-69
2022/02/15 01:13:31;;;;;;;65.80;37.47;;;;;;;-2.42;100.00;98558.69;2081599;28;20200;-69
2022/02/15 01:14:36;;;;;;;75.97;43.53;;;;;;;-2.44;100.00;98568.56;2081423;28;20187;-69
2022/02/15 01:15:39;;;;;;;67.63;39.10;;;;;;;-2.44;100.00;98559.91;2082014;28;20820;-69
2022/02/15 01:16:44;;;;;;;74.95;41.20;;;;;;;-2.45;100.00;98560.94;2081896;28;20223;-69
2022/02/15 01:17:51;;;;;;;69.57;38.78;;;;;;;-2.46;100.00;98562.75;2082018;28;20187;-69
2022/02/15 01:18:54;;;;;;;76.00;39.55;;;;;;;-2.47;100.00;98566.41;2081622;28;20204;-69
2022/02/15 01:19:57;;;;;;;73.45;42.10;;;;;;;-2.49;100.00;98558.00;2073254;28;20219;-69
2022/02/15 01:20:59;;;;;;;78.05;43.28;;;;;;;-2.49;100.00;98560.59;2072718;28;20640;-70
2022/02/15 01:22:00;;;;;;;84.63;41.83;;;;;;;-2.49;100.00;98563.22;2081581;28;20536;-69
2022/02/15 01:23:05;;;;;;;74.38;43.55;;;;;;;-2.48;100.00;98550.97;2081998;28;20274;-69
2022/02/15 01:24:11;;;;;;;83.97;41.60;;;;;;;-2.47;100.00;98552.53;2081196;28;20215;-69
2022/02/15 01:25:17;;;;;;;77.22;43.75;;;;;;;-2.46;100.00;98549.69;2073711;28;20196;-69
2022/02/15 01:26:21;;;;;;;74.75;39.75;;;;;;;-2.44;100.00;98552.09;2081241;28;20251;-69
2022/02/15 01:27:24;;;;;;;81.00;43.30;;;;;;;-2.45;100.00;98551.28;2073362;28;20208;-69
2022/02/15 01:28:27;;;;;;;75.00;41.80;;;;;;;-2.45;100.00;98547.88;2073870;28;20281;-69
2022/02/15 01:29:33;;;;;;;75.07;42.17;;;;;;;-2.46;100.00;98544.47;2081322;28;20238;-69
2022/02/15 01:30:41;;;;;;;71.03;39.35;;;;;;;-2.48;100.00;98543.91;2073798;28;20193;-70
2022/02/15 01:31:47;;;;;;;74.30;38.67;;;;;;;-2.50;100.00;98540.75;2074387;28;20231;-69
2022/02/15 01:32:51;;;;;;;72.28;40.47;;;;;;;-2.50;100.00;98538.13;2081865;28;20200;-69
2022/02/15 01:33:52;;;;;;;74.20;42.90;;;;;;;-2.52;100.00;98537.53;2081213;28;20310;-69
2022/02/15 01:34:55;;;;;;;66.03;39.30;;;;;;;-2.52;100.00;98540.16;2081258;28;20196;-69
2022/02/15 01:35:59;;;;;;;71.55;39.92;;;;;;;-2.53;100.00;98541.16;2080688;28;20597;-69
2022/02/15 01:37:02;;;;;;;73.70;40.60;;;;;;;-2.55;100.00;98532.78;2073673;28;20749;-69
2022/02/15 01:38:05;;;;;;;79.80;42.70;;;;;;;-2.57;100.00;98537.44;2073758;28;20766;-69
2022/02/15 01:39:13;;;;;;;74.13;42.08;;;;;;;-2.62;100.00;98532.06;2081219;28;20187;-69
2022/02/15 01:40:15;;;;;;;86.03;41.58;;;;;;;-2.61;100.00;98528.44;2081188;28;20200;-69
2022/02/15 01:41:18;;;;;;;69.95;40.33;;;;;;;-2.66;100.00;98523.09;2081394;28;20195;-70
2022/02/15 01:42:20;;;;;;;70.85;40.22;;;;;;;-2.68;100.00;98519.94;2081996;28;20192;-69
2022/02/15 01:43:26;;;;;;;80.18;41.13;;;;;;;-2.68;100.00;98530.38;2081907;28;20188;-70
2022/02/15 01:44:30;;;;;;;63.38;38.53;;;;;;;-2.72;100.00;98530.00;2082152;28;20241;-70
2022/02/15 01:45:38;;;;;;;75.38;41.13;;;;;;;-2.70;100.00;98529.78;2082136;28;20194;-69
2022/02/15 01:46:40;;;;;;;84.68;44.60;;;;;;;-2.71;100.00;98526.38;2081314;28;20207;-69
2022/02/15 01:47:44;;;;;;;79.85;44.10;;;;;;;-2.73;100.00;98525.81;2081227;28;20257;-69
2022/02/15 01:48:47;;;;;;;80.70;42.63;;;;;;;-2.70;100.00;98527.94;2073479;28;20235;-69
2022/02/15 01:49:54;;;;;;;75.03;42.72;;;;;;;-2.69;100.00;98526.97;2073743;28;20200;-69
2022/02/15 01:51:00;;;;;;;81.75;41.42;;;;;;;-2.68;100.00;98531.16;2072811;28;20205;-69
2022/02/15 01:52:03;;;;;;;78.55;43.15;;;;;;;-2.67;100.00;98526.72;2073586;28;20211;-70
2022/02/15 01:53:07;;;;;;;84.40;44.45;;;;;;;-2.68;100.00;98523.31;2073661;28;20291;-70
2022/02/15 01:54:12;;;;;;;83.38;44.08;;;;;;;-2.67;100.00;98534.56;2072883;28;20215;-69
2022/02/15 01:55:17;;;;;;;77.38;42.55;;;;;;;-2.67;100.00;98531.97;2073763;28;20207;-69
2022/02/15 01:56:19;;;;;;;81.47;44.25;;;;;;;-2.66;100.00;98530.94;2081604;28;20686;-69
2022/02/15 01:57:24;;;;;;;78.28;43.25;;;;;;;-2.66;100.00;98526.50;2081303;28;20188;-69
2022/02/15 01:58:34;;;;;;;82.55;42.42;;;;;;;-2.65;100.00;98529.91;2081237;28;20573;-69
2022/02/15 01:59:45;;;;;;;77.63;43.85;;;;;;;-2.64;100.00;98523.66;2074735;28;20201;-69
2022/02/15 02:00:53;;;;;;;72.57;42.60;;;;;;;-2.63;100.00;98530.47;2081283;28;20199;-69
2022/02/15 02:02:07;;;;;;;87.07;44.85;;;;;;;-2.63;100.00;98530.47;2081354;28;20191;-69
2022/02/15 02:03:10;;;;;;;79.13;42.97;;;;;;;-2.64;100.00;98536.72;2073357;28;20208;-69
2022/02/15 02:05:50;;;;;;;81.57;43.53;;;;;;;-2.63;100.00;98533.88;2080457;28;20209;-69
2022/02/15 02:06:59;;;;;;;81.25;42.22;;;;;;;-2.63;100.00;98533.09;2069367;28;20230;-69
2022/02/15 02:08:11;;;;;;;67.25;39.10;;;;;;;-2.64;100.00;98537.50;2068098;28;20228;-69
2022/02/15 02:09:17;;;;;;;78.03;41.80;;;;;;;-2.67;100.00;98529.34;2075515;28;20204;-69
2022/02/15 02:10:20;;;;;;;87.60;42.60;;;;;;;-2.69;100.00;98526.16;2074432;28;20208;-69
2022/02/15 02:11:23;;;;;;;81.53;41.28;;;;;;;-2.71;100.00;98528.19;2066737;28;20225;-70
2022/02/15 02:12:48;;;;;;;75.30;41.00;;;;;;;-2.73;100.00;98525.00;2077674;28;20277;-69
2022/02/15 02:13:54;;;;;;;67.50;39.33;;;;;;;-2.76;100.00;98528.88;2074249;28;20231;-69
2022/02/15 02:15:08;;;;;;;79.43;40.95;;;;;;;-2.81;100.00;98526.13;2068004;28;20205;-69
2022/02/15 02:16:32;;;;;;;79.38;43.25;;;;;;;-2.72;100.00;98523.97;2074769;28;20228;-69
2022/02/15 02:17:58;;;;;;;80.57;41.97;;;;;;;-2.66;100.00;98541.38;2074472;28;20220;-69
2022/02/15 02:19:02;;;;;;;77.97;42.50;;;;;;;-2.63;100.00;98533.88;2074973;28;20202;-69
2022/02/15 02:20:12;;;;;;;83.13;43.97;;;;;;;-2.59;100.00;98535.03;2074681;28;20286;-69
2022/02/15 02:21:18;;;;;;;91.07;45.05;;;;;;;-2.56;100.00;98536.41;2069130;28;20236;-70
2022/02/15 02:22:24;;;;;;;80.07;44.33;;;;;;;-2.54;100.00;98536.19;2075274;28;20242;-69
2022/02/15 02:23:29;;;;;;;84.57;44.05;;;;;;;-2.52;100.00;98531.50;2075584;28;20665;-69
2022/02/15 02:24:36;;;;;;;79.70;41.33;;;;;;;-2.57;100.00;98533.00;2082540;28;20188;-70
2022/02/15 02:25:39;;;;;;;73.50;40.70;;;;;;;-2.55;100.00;98535.38;2074458;28;20291;-69
2022/02/15 02:26:41;;;;;;;78.35;42.22;;;;;;;-2.57;100.00;98533.00;2074497;28;20622;-69
2022/02/15 02:27:48;;;;;;;77.25;43.85;;;;;;;-2.57;100.00;98530.38;2074810;28;20200;-69
2022/02/15 02:28:52;;;;;;;83.07;44.10;;;;;;;-2.57;100.00;98525.16;2082393;28;20690;-69
2022/02/15 02:29:57;;;;;;;85.22;45.40;;;;;;;-2.56;100.00;98531.19;2074961;28;20251;-70
2022/02/15 02:31:05;;;;;;;74.45;41.67;;;;;;;-2.59;100.00;98532.44;2075098;28;20204;-69
2022/02/15 02:32:11;;;;;;;86.53;45.05;;;;;;;-2.58;100.00;98535.84;2082672;28;20192;-70
2022/02/15 02:33:16;;;;;;;73.88;43.05;;;;;;;-2.60;100.00;98536.06;2082712;28;20199;-69
2022/02/15 02:34:19;;;;;;;78.10;43.75;;;;;;;-2.61;100.00;98526.66;2082484;28;20265;-70
2022/02/15 02:35:22;;;;;;;80.93;42.22;;;;;;;-2.62;100.00;98530.25;2082636;28;20219;-69
2022/02/15 02:36:26;;;;;;;76.35;42.53;;;;;;;-2.65;100.00;98529.91;2082109;28;20226;-69
2022/02/15 02:37:31;;;;;;;84.10;45.13;;;;;;;-2.67;100.00;98530.13;2090789;28;20292;-69
2022/02/15 02:38:33;;;;;;;72.65;41.95;;;;;;;-2.70;100.00;98529.78;2082301;28;20203;-69
2022/02/15 02:39:43;;;;;;;75.30;42.35;;;;;;;-2.72;100.00;98529.22;2082553;28;20186;-69
2022/02/15 02:40:49;;;;;;;74.38;41.83;;;;;;;-2.74;100.00;98523.41;2075080;28;20294;-69
2022/02/15 02:41:55;;;;;;;69.25;40.17;;;;;;;-2.77;100.00;98529.09;2075243;28;20666;-69
2022/02/15 02:43:01;;;;;;;73.95;38.58;;;;;;;-2.82;100.00;98534.19;2082513;28;20559;-69
2022/02/15 02:44:02;;;;;;;68.15;39.65;;;;;;;-2.85;100.00;98535.41;2082365;28;20309;-69
2022/02/15 02:45:07;;;;;;;79.20;43.58;;;;;;;-2.89;100.00;98529.84;2082380;28;20203;-69
2022/02/15 02:46:09;;;;;;;80.38;43.72;;;;;;;-2.89;100.00;98529.84;2074752;28;20192;-69
2022/02/15 02:47:10;;;;;;;83.32;43.28;;;;;;;-2.91;100.00;98524.03;2082698;28;20229;-69
2022/02/15 02:48:14;;;;;;;71.57;39.90;;;;;;;-2.90;100.00;98530.84;2082367;28;20195;-69
2022/02/15 02:49:17;;;;;;;85.55;44.83;;;;;;;-2.95;100.00;98519.50;2074620;28;20622;-69
2022/02/15 02:50:24;;;;;;;80.10;40.63;;;;;;;-2.96;100.00;98523.91;2074650;28;20192;-70
2022/02/15 02:51:30;;;;;;;73.22;39.15;;;;;;;-2.97;100.00;98521.53;2081811;28;20290;-69
2022/02/15 02:52:33;;;;;;;74.65;41.33;;;;;;;-3.04;100.00;98518.19;2074847;28;20200;-69
2022/02/15 02:53:34;;;;;;;74.82;40.92;;;;;;;-3.08;100.00;98524.88;2074308;28;20770;-70
2022/02/15 02:54:39;;;;;;;74.00;42.08;;;;;;;-3.07;100.00;98516.84;2082243;28;20258;-69
2022/02/15 02:55:47;;;;;;;69.63;39.83;;;;;;;-3.08;100.00;98519.66;2075022;28;20211;-69
2022/02/15 02:56:50;;;;;;;74.63;40.63;;;;;;;-3.14;100.00;98514.31;2075087;28;20216;-69
2022/02/15 02:57:56;;;;;;;77.90;38.92;;;;;;;-3.18;100.00;98515.78;2082161;28;20594;-69
2022/02/15 02:58:58;;;;;;;78.88;40.97;;;;;;;-3.20;100.00;98512.59;2082151;28;20257;-70
2022/02/15 03:00:03;;;;;;;72.03;40.38;;;;;;;-3.21;100.00;98512.81;2082665;28;20330;-69
2022/02/15 03:01:23;;;;;;;70.13;38.95;;;;;;;-3.25;100.00;98517.66;2082239;28;20199;-70
2022/02/15 03:02:28;;;;;;;66.03;40.15;;;;;;;-3.28;100.00;98519.94;2082271;28;20543;-69
2022/02/15 03:03:34;;;;;;;83.13;42.88;;;;;;;-3.27;100.00;98517.09;2074946;28;20204;-70
2022/02/15 03:04:36;;;;;;;80.95;42.90;;;;;;;-3.29;100.00;98519.13;2074843;28;20196;-69
2022/02/15 03:05:39;;;;;;;70.30;40.17;;;;;;;-3.28;100.00;98525.16;2082242;28;20196;-69
2022/02/15 03:06:44;;;;;;;73.85;41.65;;;;;;;-3.27;100.00;98521.53;2074446;28;20314;-68
2022/02/15 03:07:46;;;;;;;69.45;40.25;;;;;;;-3.30;100.00;98533.19;2074289;28;20196;-70
2022/02/15 03:08:48;;;;;;;71.95;40.88;;;;;;;-3.31;100.00;98528.16;2082266;28;20199;-70
2022/02/15 03:09:55;;;;;;;71.60;40.42;;;;;;;-3.36;100.00;98522.84;2074338;28;20617;-69
2022/02/15 03:10:59;;;;;;;80.88;41.85;;;;;;;-3.38;100.00;98520.44;2074826;28;20555;-69
2022/02/15 03:12:12;;;;;;;80.15;41.88;;;;;;;-3.39;100.00;98523.25;2083774;28;20290;-69
2022/02/15 03:13:19;;;;;;;74.85;41.65;;;;;;;-3.38;100.00;98528.28;2089872;28;20175;-69
2022/02/15 03:14:22;;;;;;;74.03;41.58;;;;;;;-3.38;100.00;98528.28;2082254;28;20234;-69
2022/02/15 03:15:31;;;;;;;75.38;41.17;;;;;;;-3.42;100.00;98522.69;2075231;28;20254;-69
2022/02/15 03:16:39;;;;;;;77.05;42.83;;;;;;;-3.42;100.00;98520.06;2074710;28;20654;-69
2022/02/15 03:17:43;;;;;;;78.70;41.88;;;;;;;-3.43;100.00;98528.91;2073474;28;20212;-69
2022/02/15 03:18:46;;;;;;;80.70;43.00;;;;;;;-3.43;100.00;98515.09;2074434;28;20193;-69
2022/02/15 03:19:51;;;;;;;76.03;42.28;;;;;;;-3.41;100.00;98521.66;2082451;28;20286;-69
2022/02/15 03:20:58;;;;;;;79.43;44.47;;;;;;;-3.39;100.00;98518.03;2081477;28;20716;-70
2022/02/15 03:22:05;;;;;;;70.72;42.17;;;;;;;-3.38;100.00;98530.09;2082137;28;20191;-69
2022/02/15 03:23:07;;;;;;;84.18;43.97;;;;;;;-3.39;100.00;98512.81;2082115;28;20198;-69
2022/02/15 03:24:15;;;;;;;79.30;43.17;;;;;;;-3.42;100.00;98520.06;2074531;28;20196;-69
2022/02/15 03:25:23;;;;;;;78.22;43.47;;;;;;;-3.42;100.00;98512.25;2074750;28;20206;-69
2022/02/15 03:26:26;;;;;;;84.13;43.00;;;;;;;-3.41;100.00;98510.44;2074578;28;20307;-69
2022/02/15 03:27:30;;;;;;;81.05;43.78;;;;;;;-3.39;100.00;98518.03;2073916;28;20562;-69
2022/02/15 03:28:34;;;;;;;76.40;43.00;;;;;;;-3.42;100.00;98512.25;2074196;28;20658;-70
2022/02/15 03:29:36;;;;;;;81.63;43.75;;;;;;;-3.40;100.00;98519.84;2074259;28;20192;-69
2022/02/15 03:30:39;;;;;;;78.55;43.95;;;;;;;-3.43;100.00;98525.50;2074283;28;20208;-69
2022/02/15 03:31:44;;;;;;;80.78;45.33;;;;;;;-3.45;100.00;98514.50;2073980;28;20204;-69
2022/02/15 03:32:47;;;;;;;81.68;44.90;;;;;;;-3.43;100.00;98518.50;2082111;28;20195;-69
2022/02/15 03:33:52;;;;;;;78.35;44.00;;;;;;;-3.39;100.00;98523.25;2074110;28;20220;-69
2022/02/15 03:34:54;;;;;;;76.93;46.25;;;;;;;-3.38;100.00;98522.25;2074279;28;20208;-69
2022/02/15 03:35:56;;;;;;;83.85;46.58;;;;;;;-3.38;100.00;98517.84;2073421;28;20208;-69
2022/02/15 03:36:59;;;;;;;79.80;44.60;;;;;;;-3.38;100.00;98520.44;2081794;28;20223;-69
2022/02/15 03:38:03;;;;;;;78.82;42.22;;;;;;;-3.38;100.00;98520.44;2081956;28;20219;-69
2022/02/15 03:39:12;;;;;;;81.80;43.47;;;;;;;-3.39;100.00;98525.88;2074801;28;20598;-69
2022/02/15 03:40:15;;;;;;;87.82;46.05;;;;;;;-3.42;100.00;98520.06;2082176;28;20203;-69
2022/02/15 03:43:06;;;;;;;75.97;42.92;;;;;;;-3.42;100.00;98530.50;2078843;28;20562;-69
2022/02/15 03:44:09;;;;;;;81.38;42.67;;;;;;;-3.44;100.00;98527.31;2075974;28;20239;-69
2022/02/15 03:45:14;;;;;;;91.85;46.45;;;;;;;-3.42;100.00;98530.50;2082054;28;20662;-69
2022/02/15 03:46:52;;;;;;;71.20;42.38;;;;;;;-3.45;100.00;98525.75;2078745;28;20204;-70
2022/02/15 03:47:55;;;;;;;69.75;40.90;;;;;;;-3.46;100.00;98529.38;2082022;28;20602;-69
2022/02/15 03:48:58;;;;;;;78.45;44.35;;;;;;;-3.44;100.00;98527.31;2081933;28;20200;-70
2022/02/15 03:50:00;;;;;;;84.90;44.15;;;;;;;-3.44;100.00;98535.16;2073808;28;20199;-68
2022/02/15 03:51:04;;;;;;;77.57;43.60;;;;;;;-3.47;100.00;98529.59;2073422;28;20199;-69
2022/02/15 03:52:09;;;;;;;72.63;42.22;;;;;;;-3.48;100.00;98536.59;2074581;28;20295;-69
2022/02/15 03:53:17;;;;;;;70.25;41.40;;;;;;;-3.48;100.00;98528.75;2082126;28;20353;-69
2022/02/15 03:54:24;;;;;;;78.28;43.25;;;;;;;-3.44;100.00;98542.97;2081843;28;20290;-68
2022/02/15 03:55:28;;;;;;;77.75;44.50;;;;;;;-3.44;100.00;98542.97;2082207;28;20202;-68
2022/02/15 03:56:29;;;;;;;80.78;42.90;;;;;;;-3.45;100.00;98546.59;2073868;28;20706;-68
2022/02/15 03:57:35;;;;;;;80.30;44.78;;;;;;;-3.46;100.00;98542.41;2073668;28;20647;-68
2022/02/15 03:58:40;;;;;;;78.25;42.85;;;;;;;-3.40;100.00;98543.31;2074566;28;20208;-69
2022/02/15 03:59:48;;;;;;;74.85;44.25;;;;;;;-3.34;100.00;98546.88;2081824;28;20234;-69
2022/02/15 04:00:58;;;;;;;86.22;46.50;;;;;;;-3.28;100.00;98548.63;2074868;28;20213;-68
2022/02/15 04:02:07;;;;;;;80.82;45.67;;;;;;;-3.19;100.00;98552.53;2074365;28;20192;-69
2022/02/15 04:03:11;;;;;;;88.68;45.35;;;;;;;-3.10;100.00;98548.59;2074246;28;20196;-68
2022/02/15 04:04:15;;;;;;;93.95;46.72;;;;;;;-3.01;100.00;98547.28;2081739;28;20241;-68
2022/02/15 04:05:17;;;;;;;83.88;46.03;;;;;;;-2.96;100.00;98549.19;2081737;28;20286;-69
2022/02/15 04:06:22;;;;;;;92.03;47.53;;;;;;;-2.92;100.00;98539.94;2073246;28;20226;-68
2022/02/15 04:07:25;;;;;;;77.03;45.92;;;;;;;-2.87;100.00;98540.88;2074136;28;20192;-69
2022/02/15 04:08:31;;;;;;;84.68;45.13;;;;;;;-2.83;100.00;98546.44;2073705;28;20304;-68
2022/02/15 04:09:34;;;;;;;84.50;46.13;;;;;;;-2.81;100.00;98543.59;2073572;28;20212;-69
2022/02/15 04:10:40;;;;;;;84.60;47.08;;;;;;;-2.83;100.00;98545.63;2074000;28;20243;-69
2022/02/15 04:11:45;;;;;;;78.47;43.47;;;;;;;-2.82;100.00;98547.22;2074249;28;20216;-68
2022/02/15 04:12:53;;;;;;;70.97;43.70;;;;;;;-2.86;100.00;98545.06;2074833;28;20691;-69
2022/02/15 04:14:01;;;;;;;84.45;45.63;;;;;;;-2.86;100.00;98537.25;2073900;28;20572;-69
2022/02/15 04:15:05;;;;;;;81.68;44.60;;;;;;;-2.80;100.00;98538.16;2082392;28;20606;-68
2022/02/15 04:16:17;;;;;;;85.18;44.88;;;;;;;-2.72;100.00;98543.06;2081661;28;20707;-69
2022/02/15 04:17:18;;;;;;;67.50;40.35;;;;;;;-2.76;100.00;98535.91;2074054;28;20765;-69
2022/02/15 04:18:22;;;;;;;78.50;42.33;;;;;;;-2.81;100.00;98538.38;2081858;28;20613;-69
2022/02/15 04:19:27;;;;;;;80.25;44.25;;;;;;;-2.86;100.00;98537.25;2081760;28;20534;-69
2022/02/15 04:20:30;;;;;;;79.60;43.53;;;;;;;-2.83;100.00;98540.41;2081689;28;20587;-69
2022/02/15 04:21:34;;;;;;;76.13;43.38;;;;;;;-2.83;100.00;98543.03;2081126;28;20288;-68
2022/02/15 04:22:40;;;;;;;85.30;45.60;;;;;;;-2.87;100.00;98548.69;2081819;28;20203;-69
2022/02/15 04:23:49;;;;;;;82.32;43.78;;;;;;;-2.86;100.00;98544.28;2074212;28;20204;-68
2022/02/15 04:24:52;;;;;;;82.10;45.55;;;;;;;-2.88;100.00;98547.06;2081986;28;20294;-68
2022/02/15 04:25:54;;;;;;;85.47;45.55;;;;;;;-2.83;100.00;98548.25;2073676;28;20291;-68
2022/02/15 04:27:04;;;;;;;76.55;42.45;;;;;;;-2.80;100.00;98532.94;2074927;28;20192;-69
2022/02/15 04:28:08;;;;;;;69.60;43.85;;;;;;;-2.80;100.00;98540.75;2073679;28;20211;-68
2022/02/15 04:29:14;;;;;;;73.07;41.97;;;;;;;-2.83;100.00;98543.03;2081635;28;20697;-69
2022/02/15 04:30:26;;;;;;;74.68;41.10;;;;;;;-2.93;100.00;98535.72;2075257;28;20204;-69
2022/02/15 04:31:29;;;;;;;73.57;42.13;;;;;;;-2.95;100.00;98546.41;2073882;28;20225;-68
2022/02/15 04:32:33;;;;;;;67.63;39.65;;;;;;;-3.02;100.00;98544.88;2081539;28;20200;-69
2022/02/15 04:33:36;;;;;;;76.72;41.88;;;;;;;-3.08;100.00;98543.16;2081409;28;20200;-69
2022/02/15 04:34:39;;;;;;;81.35;43.78;;;;;;;-3.14;100.00;98543.00;2073546;28;20219;-69
2022/02/15 04:35:42;;;;;;;74.30;43.22;;;;;;;-3.19;100.00;98540.28;2073728;28;20204;-68
2022/02/15 04:36:49;;;;;;;75.05;41.28;;;;;;;-3.22;100.00;98540.69;2073623;28;20772;-69
2022/02/15 04:37:54;;;;;;;81.35;44.15;;;;;;;-3.26;100.00;98546.59;2074183;28;20220;-69
2022/02/15 04:38:58;;;;;;;72.10;41.97;;;;;;;-3.32;100.00;98532.59;2073704;28;20204;-69
2022/02/15 04:40:00;;;;;;;75.47;40.63;;;;;;;-3.33;100.00;98540.66;2073635;28;20689;-69
2022/02/15 04:41:05;;;;;;;74.50;42.67;;;;;;;-3.36;100.00;98543.69;2073509;28;20220;-68
2022/02/15 04:42:07;;;;;;;84.50;45.17;;;;;;;-3.39;100.00;98544.91;2081510;28;20203;-68
2022/02/15 04:43:12;;;;;;;80.60;43.15;;;;;;;-3.42;100.00;98540.13;2073409;28;20283;-68
2022/02/15 04:44:15;;;;;;;76.00;43.30;;;;;;;-3.43;100.00;98538.56;2074064;28;20200;-69
2022/02/15 04:45:20;;;;;;;79.10;42.17;;;;;;;-3.46;100.00;98539.78;2081414;28;20226;-69
2022/02/15 04:46:26;;;;;;;78.85;44.42;;;;;;;-3.47;100.00;98542.63;2074731;28;20204;-69
2022/02/15 04:47:31;;;;;;;71.82;41.15;;;;;;;-3.48;100.00;98543.63;2081710;28;20615;-68
2022/02/15 04:48:33;;;;;;;83.15;44.00;;;;;;;-3.49;100.00;98553.25;2081450;28;20241;-68
2022/02/15 04:49:38;;;;;;;78.53;44.45;;;;;;;-3.49;100.00;98544.63;2073913;28;20224;-68
2022/02/15 04:50:43;;;;;;;79.07;44.47;;;;;;;-3.52;100.00;98542.47;2081851;28;20203;-68
2022/02/15 04:51:46;;;;;;;83.82;46.08;;;;;;;-3.50;100.00;98548.25;2080994;28;20285;-69
2022/02/15 04:52:47;;;;;;;82.60;44.40;;;;;;;-3.51;100.00;98546.66;2073764;28;20204;-69
2022/02/15 04:53:54;;;;;;;81.53;45.95;;;;;;;-3.50;100.00;98545.66;2073843;28;20215;-69
2022/02/15 04:54:57;;;;;;;83.30;45.53;;;;;;;-3.53;100.00;98546.09;2073353;28;20205;-69
2022/02/15 04:56:02;;;;;;;76.78;45.55;;;;;;;-3.51;100.00;98557.09;2073386;28;20195;-69
2022/02/15 04:57:05;;;;;;;82.85;46.30;;;;;;;-3.52;100.00;98564.13;2081545;28;20187;-68
2022/02/15 04:58:14;;;;;;;81.28;45.95;;;;;;;-3.52;100.00;98560.72;2081679;28;20187;-69
2022/02/15 04:59:19;;;;;;;80.28;44.97;;;;;;;-3.54;100.00;98565.34;2074569;28;20200;-68